Austin, Texas
Traffic Map
Current Weather Conditions
Austin, Texas
Broken Clouds
Broken Clouds
26°
Feels Like: 28°
Wind Chill: 26° Ceiling: 1400
Heat Index: 28° Visibility: 10mi
Dew Point: 21° Wind: 0mph
Humidity: 74% Direction: ° ()
Pressure: 29.97in Gusts: 0mph
Raw Report DataKATT 030733Z AUTO 00000KT 10SM BKN014 26/21 A2997 RMK AO2 T02610211
Traffic Incident Summary
Active as of:
Severity:
Category:
InformationThere was an issue retrieving the traffic information for this location. Please try a different location or try again shortly.
Advertisements
Track Severe Weather on mobile